Time;durP1;ratioP1;P1;durP2;ratioP2;P2;SDS_P1;SDS_P2;PMS_P1;PMS_P2;Temp;Humidity;BMP_temperature;BMP_pressure;BME280_temperature;BME280_humidity;BME280_pressure;Samples;Min_cycle;Max_cycle;Signal;HPM_P1;HPM_P2
2024/04/14 00:02:02;;;;;;;7.87;6.60;;;20.30;99.90;;;;;;5414096;26;20460;-60
2024/04/14 00:04:29;;;;;;;6.30;5.70;;;20.30;99.90;;;;;;5415004;26;20235;-60
2024/04/14 00:06:55;;;;;;;6.27;5.77;;;20.30;99.90;;;;;;5415644;26;20219;-60
2024/04/14 00:09:21;;;;;;;5.83;5.37;;;20.30;99.90;;;;;;5415435;26;20512;-60
2024/04/14 00:11:46;;;;;;;6.27;4.90;;;20.20;99.90;;;;;;5414463;26;20528;-60
2024/04/14 00:14:12;;;;;;;5.60;5.20;;;20.20;99.90;;;;;;5416189;26;20239;-60
2024/04/14 00:16:38;;;;;;;6.03;5.17;;;20.10;99.90;;;;;;5414688;26;20453;-60
2024/04/14 00:19:04;;;;;;;5.77;5.30;;;20.10;99.90;;;;;;5395741;26;20259;-60
2024/04/14 00:21:29;;;;;;;7.10;4.50;;;20.00;99.90;;;;;;5415340;26;20235;-60
2024/04/14 00:23:56;;;;;;;5.00;4.20;;;20.00;99.90;;;;;;5413679;26;20238;-60
2024/04/14 00:26:22;;;;;;;4.57;4.20;;;19.90;97.50;;;;;;5413977;26;20297;-60
2024/04/14 00:28:49;;;;;;;3.87;3.60;;;19.80;95.90;;;;;;5413789;26;20995;-60
2024/04/14 00:31:15;;;;;;;4.80;4.00;;;19.80;94.50;;;;;;5413257;26;20239;-60
2024/04/14 00:33:41;;;;;;;3.70;3.50;;;19.70;93.40;;;;;;5414273;26;20508;-60
2024/04/14 00:36:08;;;;;;;4.63;3.80;;;19.70;94.30;;;;;;5413297;26;20498;-60
2024/04/14 00:38:34;;;;;;;4.37;3.70;;;19.70;93.50;;;;;;5415564;26;20782;-60
2024/04/14 00:41:01;;;;;;;3.77;3.53;;;19.60;91.70;;;;;;5413165;26;20503;-60
2024/04/14 00:43:27;;;;;;;3.63;3.33;;;19.50;90.80;;;;;;5412106;26;20441;-60
2024/04/14 00:45:53;;;;;;;4.17;3.77;;;19.50;90.60;;;;;;5414563;26;20509;-60
2024/04/14 00:48:19;;;;;;;3.90;3.70;;;19.50;89.60;;;;;;5413939;26;20278;-60
2024/04/14 00:50:46;;;;;;;3.60;3.40;;;19.50;89.30;;;;;;5413764;26;20453;-60
2024/04/14 00:53:12;;;;;;;4.00;3.70;;;19.50;89.00;;;;;;5413858;26;20562;-60
2024/04/14 00:55:40;;;;;;;4.27;3.87;;;19.50;90.10;;;;;;5415007;26;20995;-60
2024/04/14 00:58:06;;;;;;;3.40;2.97;;;19.40;89.50;;;;;;5412646;26;21059;-60
2024/04/14 01:00:33;;;;;;;3.10;3.00;;;19.40;88.90;;;;;;5414153;26;20494;-60
2024/04/14 01:02:59;;;;;;;3.40;3.20;;;19.50;86.00;;;;;;5414194;26;20445;-60
2024/04/14 01:05:25;;;;;;;3.20;3.10;;;19.40;86.50;;;;;;5414516;26;20468;-60
2024/04/14 01:07:54;;;;;;;3.13;3.00;;;19.30;84.70;;;;;;5382811;26;20453;-60
2024/04/14 01:10:21;;;;;;;3.47;3.27;;;19.40;85.20;;;;;;5418448;26;20511;-60
2024/04/14 01:12:47;;;;;;;3.30;3.20;;;19.40;88.90;;;;;;5416422;26;21213;-60
2024/04/14 01:15:12;;;;;;;3.03;2.93;;;19.30;85.20;;;;;;5417294;26;20479;-60
2024/04/14 01:17:38;;;;;;;3.40;3.30;;;19.30;84.30;;;;;;5417557;26;20748;-60
2024/04/14 01:20:04;;;;;;;3.60;3.30;;;19.30;82.40;;;;;;5417376;26;20231;-60
2024/04/14 01:22:30;;;;;;;3.70;3.40;;;19.20;84.90;;;;;;5403106;26;20310;-60
2024/04/14 01:25:06;;;;;;;3.30;3.10;;;19.20;83.80;;;;;;5416515;26;20750;-60
2024/04/14 01:27:33;;;;;;;3.30;3.10;;;19.10;83.20;;;;;;5418417;26;20223;-60
2024/04/14 01:29:59;;;;;;;4.37;3.60;;;19.10;83.00;;;;;;5416083;26;20464;-60
2024/04/14 01:32:25;;;;;;;5.40;3.13;;;19.10;81.40;;;;;;5417240;26;20501;-60
2024/04/14 01:34:51;;;;;;;3.80;3.40;;;19.00;82.80;;;;;;5417513;26;20665;-60
2024/04/14 01:37:16;;;;;;;3.47;3.30;;;19.00;83.20;;;;;;5417411;26;20270;-60
2024/04/14 01:39:42;;;;;;;3.50;3.30;;;19.00;80.30;;;;;;5416802;26;20449;-60
2024/04/14 01:42:08;;;;;;;3.67;3.37;;;19.00;80.50;;;;;;5417444;26;20282;-60
2024/04/14 01:44:33;;;;;;;3.80;3.50;;;18.90;88.40;;;;;;5413759;26;20581;-60
2024/04/14 01:46:59;;;;;;;3.40;3.20;;;18.80;81.30;;;;;;5416510;26;20286;-59
2024/04/14 01:49:25;;;;;;;3.47;3.30;;;18.80;81.30;;;;;;5386394;26;20235;-59
2024/04/14 01:51:51;;;;;;;3.87;3.43;;;18.80;80.50;;;;;;5416753;26;20251;-59
2024/04/14 01:54:17;;;;;;;3.70;3.40;;;18.80;81.50;;;;;;5417767;26;20760;-60
2024/04/14 01:56:42;;;;;;;3.83;3.60;;;18.70;86.40;;;;;;5413349;26;20274;-60
2024/04/14 01:59:08;;;;;;;3.70;3.50;;;18.70;88.40;;;;;;5414791;26;20239;-60
2024/04/14 02:01:34;;;;;;;3.87;3.67;;;18.60;88.40;;;;;;5418014;26;20281;-60
2024/04/14 02:03:59;;;;;;;3.70;3.40;;;18.60;91.30;;;;;;5416119;26;20306;-59
2024/04/14 02:06:25;;;;;;;4.10;3.80;;;18.60;91.80;;;;;;5416506;26;20251;-60
2024/04/14 02:08:51;;;;;;;4.50;4.10;;;18.50;89.00;;;;;;5417117;26;20282;-59
2024/04/14 02:11:17;;;;;;;3.67;3.30;;;18.50;90.10;;;;;;5356174;26;20753;-60
2024/04/14 02:13:43;;;;;;;3.90;3.60;;;18.50;92.60;;;;;;5416777;26;20513;-60
2024/04/14 02:16:10;;;;;;;5.23;3.50;;;18.40;96.00;;;;;;5385808;26;20530;-60
2024/04/14 02:18:36;;;;;;;4.30;3.90;;;18.30;92.80;;;;;;5428460;26;20859;-60
2024/04/14 02:21:02;;;;;;;4.40;3.50;;;18.30;93.10;;;;;;5418525;26;20523;-60
2024/04/14 02:23:27;;;;;;;4.07;3.80;;;18.30;92.70;;;;;;5453592;26;20455;-60
2024/04/14 02:25:54;;;;;;;4.17;3.77;;;18.20;91.80;;;;;;5450895;26;20237;-60
2024/04/14 02:28:20;;;;;;;6.33;3.97;;;18.20;94.20;;;;;;5451775;26;20571;-60
2024/04/14 02:30:46;;;;;;;4.20;3.80;;;18.20;94.20;;;;;;5453475;26;20491;-60
2024/04/14 02:33:11;;;;;;;4.80;3.83;;;18.20;92.80;;;;;;5449291;26;20283;-60
2024/04/14 02:35:40;;;;;;;4.00;3.60;;;18.20;93.90;;;;;;5451299;26;20563;-60
2024/04/14 02:38:06;;;;;;;4.70;3.63;;;18.20;92.00;;;;;;5452511;26;20242;-60
2024/04/14 02:40:31;;;;;;;4.10;3.80;;;18.10;92.70;;;;;;5451384;26;20508;-60
2024/04/14 02:42:57;;;;;;;3.90;3.57;;;18.10;91.80;;;;;;5449710;26;20237;-60
2024/04/14 02:45:23;;;;;;;3.97;3.63;;;18.10;92.10;;;;;;5451529;26;20288;-60
2024/04/14 02:47:49;;;;;;;4.10;3.80;;;18.00;91.90;;;;;;5453077;26;20237;-60
2024/04/14 02:50:14;;;;;;;3.97;3.67;;;17.90;91.40;;;;;;5450519;26;20282;-60
2024/04/14 02:52:40;;;;;;;4.43;3.60;;;17.90;91.60;;;;;;5451672;26;20234;-60
2024/04/14 02:55:06;;;;;;;4.43;3.50;;;18.00;91.20;;;;;;5449454;26;20448;-60
2024/04/14 02:57:32;;;;;;;4.20;3.87;;;18.00;90.70;;;;;;5453325;26;20229;-60
2024/04/14 02:59:58;;;;;;;3.80;3.40;;;17.90;90.10;;;;;;5450754;26;20364;-60
2024/04/14 03:02:23;;;;;;;3.77;3.47;;;18.00;89.20;;;;;;5451373;26;20463;-60
2024/04/14 03:04:49;;;;;;;3.80;3.53;;;18.00;88.30;;;;;;5452751;26;20226;-60
2024/04/14 03:07:15;;;;;;;3.43;3.23;;;17.90;87.80;;;;;;5450694;26;20275;-60
2024/04/14 03:09:41;;;;;;;3.53;3.33;;;18.00;87.90;;;;;;5419312;26;20459;-60
2024/04/14 03:12:07;;;;;;;3.43;3.10;;;18.00;88.20;;;;;;5450130;26;20496;-60
2024/04/14 03:14:33;;;;;;;4.57;3.70;;;17.90;88.70;;;;;;5421118;26;20551;-60
2024/04/14 03:16:58;;;;;;;4.27;3.40;;;17.90;89.50;;;;;;5450301;26;20475;-60
2024/04/14 03:19:24;;;;;;;3.63;3.33;;;17.80;89.70;;;;;;5450317;26;20241;-60
2024/04/14 03:21:50;;;;;;;4.03;3.57;;;17.80;89.30;;;;;;5421016;26;20714;-60
2024/04/14 03:24:16;;;;;;;4.10;3.80;;;17.80;89.80;;;;;;5449958;26;20245;-60
2024/04/14 03:26:41;;;;;;;5.87;3.93;;;17.80;90.10;;;;;;5450990;26;20222;-60
2024/04/14 03:29:07;;;;;;;3.90;3.60;;;17.70;89.70;;;;;;5451386;26;20233;-60
2024/04/14 03:31:33;;;;;;;3.53;3.30;;;17.70;90.10;;;;;;5450865;26;20284;-60
2024/04/14 03:33:58;;;;;;;4.20;3.90;;;17.60;90.10;;;;;;5451634;26;20285;-60
2024/04/14 03:36:24;;;;;;;3.50;3.30;;;17.60;90.10;;;;;;5450789;26;20233;-60
2024/04/14 03:38:50;;;;;;;3.67;3.47;;;17.50;90.10;;;;;;5450957;26;20289;-60
2024/04/14 03:41:15;;;;;;;3.60;3.40;;;17.50;90.20;;;;;;5451563;26;20237;-62
2024/04/14 03:43:41;;;;;;;3.70;3.50;;;17.50;90.60;;;;;;5447822;26;20239;-61
2024/04/14 03:46:10;;;;;;;3.77;3.40;;;17.50;90.40;;;;;;5451516;26;20229;-63
2024/04/14 03:48:36;;;;;;;3.80;3.50;;;17.50;90.60;;;;;;5449147;26;20546;-61
2024/04/14 03:51:01;;;;;;;4.63;3.67;;;17.50;90.40;;;;;;5389259;26;20495;-61
2024/04/14 03:53:27;;;;;;;3.87;3.57;;;17.40;90.60;;;;;;5421265;26;20218;-62
2024/04/14 03:55:53;;;;;;;3.83;3.53;;;17.40;90.70;;;;;;5450476;26;20769;-61
2024/04/14 03:58:18;;;;;;;4.03;3.70;;;17.40;90.60;;;;;;5450118;26;20551;-61
2024/04/14 04:00:44;;;;;;;3.60;3.40;;;17.40;91.10;;;;;;5452084;26;20628;-61
2024/04/14 04:03:11;;;;;;;4.07;3.67;;;17.40;91.30;;;;;;5449812;26;20238;-61
2024/04/14 04:05:37;;;;;;;4.13;3.80;;;17.40;91.30;;;;;;5450324;26;20517;-61
2024/04/14 04:08:02;;;;;;;3.60;3.30;;;17.40;91.60;;;;;;5451475;26;20435;-61
2024/04/14 04:10:28;;;;;;;3.43;3.23;;;17.40;91.80;;;;;;5450387;26;20237;-62
2024/04/14 04:12:54;;;;;;;5.73;4.30;;;17.40;93.60;;;;;;5449674;26;20234;-61
2024/04/14 04:15:19;;;;;;;5.20;3.60;;;17.40;93.40;;;;;;5451000;26;20230;-61
2024/04/14 04:17:45;;;;;;;4.37;4.03;;;17.40;92.70;;;;;;5449968;26;20238;-60
2024/04/14 04:20:11;;;;;;;4.60;3.93;;;17.40;92.80;;;;;;5432737;26;20237;-61
2024/04/14 04:22:37;;;;;;;4.33;3.83;;;17.30;93.10;;;;;;5441516;26;21085;-62
2024/04/14 04:25:03;;;;;;;4.90;4.20;;;17.30;92.90;;;;;;5451202;26;20221;-61
2024/04/14 04:27:28;;;;;;;5.40;4.07;;;17.30;93.90;;;;;;5417804;26;20659;-61
2024/04/14 04:29:54;;;;;;;3.80;3.57;;;17.30;93.40;;;;;;5416848;26;20234;-62
2024/04/14 04:32:21;;;;;;;3.87;3.67;;;17.30;92.80;;;;;;5425907;26;20344;-61
2024/04/14 04:34:47;;;;;;;4.13;3.77;;;17.30;93.10;;;;;;5434357;26;20234;-62
2024/04/14 04:37:16;;;;;;;4.13;3.83;;;17.20;92.20;;;;;;5419874;26;20515;-62
2024/04/14 04:39:43;;;;;;;4.40;4.00;;;17.20;92.30;;;;;;5415389;26;20432;-61
2024/04/14 04:42:08;;;;;;;4.40;4.00;;;17.20;92.70;;;;;;5426399;26;20883;-64
2024/04/14 04:44:34;;;;;;;5.03;4.10;;;17.20;92.20;;;;;;5417451;26;20484;-65
2024/04/14 04:47:00;;;;;;;4.20;3.90;;;17.20;92.30;;;;;;5415341;26;20307;-64
2024/04/14 04:49:26;;;;;;;8.03;4.57;;;17.20;94.30;;;;;;5418458;26;20477;-65
2024/04/14 04:51:51;;;;;;;4.40;4.00;;;17.20;93.40;;;;;;5450279;26;20276;-65
2024/04/14 04:54:17;;;;;;;4.53;4.23;;;17.10;93.60;;;;;;5446520;26;20294;-64
2024/04/14 04:56:43;;;;;;;4.13;3.87;;;17.10;93.20;;;;;;5432228;26;20242;-65
2024/04/14 04:59:08;;;;;;;6.03;3.80;;;17.10;93.30;;;;;;5449208;26;20237;-64
2024/04/14 05:01:34;;;;;;;4.47;4.10;;;17.10;93.60;;;;;;5418682;26;20766;-64
2024/04/14 05:04:00;;;;;;;5.00;4.37;;;17.10;93.70;;;;;;5408321;26;20302;-63
2024/04/14 05:06:25;;;;;;;5.50;3.93;;;17.10;93.80;;;;;;5428845;26;20247;-64
2024/04/14 05:08:51;;;;;;;8.93;4.27;;;17.00;94.00;;;;;;5423214;26;20541;-65
2024/04/14 05:11:17;;;;;;;4.63;4.23;;;17.00;93.70;;;;;;5447196;26;20238;-64
2024/04/14 05:13:44;;;;;;;4.53;3.87;;;17.00;94.50;;;;;;5417224;26;20262;-64
2024/04/14 05:16:09;;;;;;;5.90;4.80;;;16.90;94.70;;;;;;5384984;26;20714;-64
2024/04/14 05:18:35;;;;;;;5.10;4.63;;;16.90;94.40;;;;;;5426634;26;20595;-64
2024/04/14 05:21:01;;;;;;;6.00;4.70;;;16.90;94.30;;;;;;5416926;26;20328;-63
2024/04/14 05:23:26;;;;;;;5.87;5.40;;;16.90;94.70;;;;;;5418290;26;20243;-64
2024/04/14 05:25:52;;;;;;;6.23;5.07;;;16.90;95.10;;;;;;5385709;26;20239;-64
2024/04/14 05:28:18;;;;;;;5.70;5.17;;;16.90;95.90;;;;;;5417674;26;20253;-64
2024/04/14 05:30:45;;;;;;;6.63;4.70;;;16.90;96.60;;;;;;5415756;26;20238;-65
2024/04/14 05:33:11;;;;;;;5.77;4.30;;;16.90;97.70;;;;;;5386340;26;20248;-64
2024/04/14 05:35:36;;;;;;;9.27;5.80;;;16.90;96.90;;;;;;5417693;26;20456;-64
2024/04/14 05:38:02;;;;;;;8.10;5.40;;;16.90;96.90;;;;;;5388709;26;20230;-64
2024/04/14 05:40:28;;;;;;;8.60;5.20;;;17.00;96.80;;;;;;5418025;26;20239;-64
2024/04/14 05:42:54;;;;;;;7.00;5.27;;;17.00;97.70;;;;;;5439623;26;20710;-64
2024/04/14 05:45:28;;;;;;;5.13;4.73;;;16.90;97.40;;;;;;5385448;26;20231;-64
2024/04/14 05:47:56;;;;;;;7.30;5.23;;;16.90;97.70;;;;;;5419950;26;20781;-65
2024/04/14 05:50:22;;;;;;;5.27;4.83;;;16.90;97.90;;;;;;5424146;26;20457;-65
2024/04/14 05:52:49;;;;;;;6.90;5.40;;;17.00;98.20;;;;;;5425260;26;20452;-64
2024/04/14 05:55:14;;;;;;;5.93;5.33;;;17.00;98.40;;;;;;5435630;26;20449;-64
2024/04/14 05:57:40;;;;;;;8.70;6.00;;;17.00;98.20;;;;;;5420117;26;20509;-64
2024/04/14 06:00:06;;;;;;;8.93;5.70;;;17.00;99.50;;;;;;5424377;26;20583;-64
2024/04/14 06:02:32;;;;;;;6.87;6.17;;;17.00;99.30;;;;;;5393323;26;20235;-65
2024/04/14 06:04:58;;;;;;;5.90;5.03;;;17.00;98.90;;;;;;5449163;26;20574;-65
2024/04/14 06:07:23;;;;;;;6.87;5.60;;;17.00;99.70;;;;;;5453550;26;20260;-64
2024/04/14 06:09:49;;;;;;;7.70;6.47;;;17.10;98.90;;;;;;5453873;26;20222;-65
2024/04/14 06:12:15;;;;;;;11.60;5.83;;;17.10;99.90;;;;;;5421575;26;20218;-64
2024/04/14 06:14:41;;;;;;;10.53;6.40;;;17.10;99.80;;;;;;5418428;26;20251;-65
2024/04/14 06:17:06;;;;;;;9.07;5.77;;;17.10;99.90;;;;;;5416810;26;20226;-64
2024/04/14 06:19:32;;;;;;;6.10;5.20;;;17.10;99.90;;;;;;5417696;26;20304;-64
2024/04/14 06:21:58;;;;;;;7.90;5.30;;;17.10;99.90;;;;;;5417835;26;20282;-65
2024/04/14 06:24:23;;;;;;;6.63;5.30;;;17.10;99.90;;;;;;5416870;26;20350;-64
2024/04/14 06:26:49;;;;;;;8.50;5.87;;;17.10;99.90;;;;;;5416114;26;20265;-63
2024/04/14 06:29:15;;;;;;;6.27;5.60;;;17.10;99.70;;;;;;5414753;26;20231;-64
2024/04/14 06:31:40;;;;;;;6.90;5.83;;;17.10;99.90;;;;;;5417441;26;20238;-64
2024/04/14 06:34:06;;;;;;;8.47;5.20;;;17.20;99.90;;;;;;5413997;26;20274;-64
2024/04/14 06:36:32;;;;;;;8.07;5.57;;;17.20;99.80;;;;;;5417186;26;20612;-64
2024/04/14 06:38:58;;;;;;;9.60;5.90;;;17.20;99.70;;;;;;5386356;26;20245;-64
2024/04/14 06:41:24;;;;;;;6.37;5.77;;;17.20;99.90;;;;;;5416890;26;20215;-64
2024/04/14 06:43:49;;;;;;;6.90;6.20;;;17.30;99.80;;;;;;5417724;26;20690;-64
2024/04/14 06:46:15;;;;;;;7.60;6.00;;;17.30;99.90;;;;;;5417019;26;20264;-64
2024/04/14 06:48:41;;;;;;;11.80;5.70;;;17.30;99.90;;;;;;5417576;26;20238;-64
2024/04/14 06:51:07;;;;;;;9.20;5.87;;;17.30;99.90;;;;;;5385594;26;20845;-63
2024/04/14 06:53:33;;;;;;;6.27;5.13;;;17.40;99.90;;;;;;5386219;26;20262;-64
2024/04/14 06:56:00;;;;;;;7.00;5.30;;;17.40;99.90;;;;;;5417476;26;20485;-64
2024/04/14 06:58:26;;;;;;;7.70;5.90;;;17.40;99.80;;;;;;5416721;26;20480;-64
2024/04/14 07:00:52;;;;;;;7.90;5.50;;;17.40;99.80;;;;;;5417353;26;20547;-64
2024/04/14 07:03:18;;;;;;;9.17;5.53;;;17.40;99.40;;;;;;5415583;26;20449;-66
2024/04/14 07:05:44;;;;;;;6.57;5.47;;;17.40;99.50;;;;;;5416605;26;20218;-64
2024/04/14 07:08:10;;;;;;;7.93;5.60;;;17.40;99.80;;;;;;5416587;26;20522;-64
2024/04/14 07:10:36;;;;;;;6.43;5.80;;;17.40;99.70;;;;;;5417422;26;20219;-64
2024/04/14 07:13:02;;;;;;;6.00;5.40;;;17.40;99.90;;;;;;5386094;26;20253;-64
2024/04/14 07:15:27;;;;;;;8.67;5.90;;;17.40;99.90;;;;;;5415841;26;20437;-64
2024/04/14 07:17:53;;;;;;;8.60;7.33;;;17.40;99.50;;;;;;5416532;26;20498;-64
2024/04/14 07:20:20;;;;;;;6.33;5.80;;;17.40;99.90;;;;;;5416010;26;20223;-64
2024/04/14 07:22:46;;;;;;;10.63;6.67;;;17.50;99.70;;;;;;5356379;26;20574;-64
2024/04/14 07:25:11;;;;;;;7.10;6.17;;;17.50;99.90;;;;;;5384736;26;20441;-64
2024/04/14 07:27:37;;;;;;;8.97;6.43;;;17.50;99.90;;;;;;5416389;26;20243;-64
2024/04/14 07:30:04;;;;;;;10.93;5.47;;;17.60;99.90;;;;;;5416438;26;20231;-64
2024/04/14 07:32:30;;;;;;;7.30;5.43;;;17.60;99.40;;;;;;5414639;26;20747;-64
2024/04/14 07:34:56;;;;;;;7.30;5.43;;;17.70;99.90;;;;;;5416862;26;20437;-64
2024/04/14 07:37:22;;;;;;;6.93;5.87;;;17.70;99.90;;;;;;5415754;26;20938;-64
2024/04/14 07:39:47;;;;;;;8.00;5.30;;;17.70;99.90;;;;;;5415507;26;20269;-60
2024/04/14 07:42:13;;;;;;;9.13;4.90;;;17.70;99.30;;;;;;5413114;26;20247;-60
2024/04/14 07:44:39;;;;;;;8.20;4.60;;;17.80;99.10;;;;;;5416502;26;20247;-60
2024/04/14 07:47:05;;;;;;;4.73;4.33;;;17.80;98.10;;;;;;5416800;26;20246;-61
2024/04/14 07:49:31;;;;;;;10.80;5.00;;;17.80;99.30;;;;;;5416190;26;20235;-61
2024/04/14 07:51:57;;;;;;;9.63;6.20;;;17.90;98.60;;;;;;5385259;26;20441;-60
2024/04/14 07:54:23;;;;;;;11.50;5.87;;;17.90;98.30;;;;;;5384608;26;20488;-60
2024/04/14 07:56:48;;;;;;;5.80;4.60;;;17.90;97.70;;;;;;5416658;26;20230;-65
2024/04/14 07:59:14;;;;;;;4.90;4.40;;;17.90;97.80;;;;;;5413834;26;20449;-64
2024/04/14 08:01:40;;;;;;;5.83;3.90;;;18.30;99.90;;;;;;5384227;26;20246;-64
2024/04/14 08:04:06;;;;;;;7.63;4.30;;;18.60;99.90;;;;;;5415818;26;20234;-64
2024/04/14 08:06:32;;;;;;;5.80;5.20;;;18.90;99.90;;;;;;5413220;26;20630;-64
2024/04/14 08:08:57;;;;;;;11.23;7.80;;;19.10;99.90;;;;;;5414599;26;20298;-64
2024/04/14 08:11:24;;;;;;;12.73;8.60;;;19.20;99.90;;;;;;5415439;26;20291;-64
2024/04/14 08:13:51;;;;;;;9.80;7.17;;;19.30;99.90;;;;;;5416099;26;20270;-64
2024/04/14 08:16:16;;;;;;;7.07;5.90;;;19.30;99.20;;;;;;5415312;26;20437;-64
2024/04/14 08:18:45;;;;;;;7.77;6.27;;;19.30;95.50;;;;;;5432259;26;20577;-64
2024/04/14 08:21:11;;;;;;;10.50;8.53;;;19.30;99.60;;;;;;5455791;26;20226;-64
2024/04/14 08:23:37;;;;;;;11.20;8.97;;;19.40;98.30;;;;;;5394397;26;21015;-64
2024/04/14 08:26:03;;;;;;;14.23;10.17;;;19.40;97.80;;;;;;5455667;26;20428;-64
2024/04/14 08:28:29;;;;;;;6.33;5.37;;;19.40;96.50;;;;;;5454970;26;20254;-64
2024/04/14 08:30:54;;;;;;;11.40;7.90;;;19.50;95.50;;;;;;5452403;26;20447;-64
2024/04/14 08:33:20;;;;;;;9.23;6.57;;;19.50;96.60;;;;;;5450820;26;20448;-64
2024/04/14 08:35:46;;;;;;;9.93;8.90;;;19.60;95.90;;;;;;5454923;26;20230;-64
2024/04/14 08:38:12;;;;;;;14.60;12.70;;;19.60;95.00;;;;;;5455337;26;20690;-64
2024/04/14 08:40:38;;;;;;;11.80;7.60;;;19.60;94.00;;;;;;5455178;26;20218;-64
2024/04/14 08:43:04;;;;;;;10.17;8.53;;;19.40;94.30;;;;;;5455421;26;20549;-64
2024/04/14 08:45:32;;;;;;;11.40;10.10;;;19.50;94.10;;;;;;5451353;26;20717;-64
2024/04/14 08:48:01;;;;;;;39.37;25.83;;;19.40;94.70;;;;;;5450752;26;20550;-65
2024/04/14 08:50:28;;;;;;;42.67;30.67;;;19.40;94.20;;;;;;5454246;26;20452;-65
2024/04/14 08:52:54;;;;;;;36.97;27.23;;;19.40;93.90;;;;;;5455127;26;20499;-65
2024/04/14 08:55:20;;;;;;;26.60;21.77;;;19.30;94.10;;;;;;5454287;26;20506;-64
2024/04/14 08:57:47;;;;;;;24.43;18.40;;;19.30;93.40;;;;;;5454891;26;20451;-64
2024/04/14 09:00:15;;;;;;;5.87;5.30;;;19.30;93.30;;;;;;5455053;26;20264;-65
2024/04/14 09:02:42;;;;;;;7.30;6.00;;;19.30;92.80;;;;;;5422662;26;21065;-64
2024/04/14 09:05:12;;;;;;;4.83;4.33;;;19.20;92.80;;;;;;5448697;26;20516;-64
2024/04/14 09:07:38;;;;;;;15.50;12.57;;;19.20;92.40;;;;;;5448403;26;20524;-65
2024/04/14 09:10:05;;;;;;;12.13;10.50;;;19.30;93.90;;;;;;5447136;26;20505;-64
2024/04/14 09:12:31;;;;;;;5.37;4.87;;;19.30;92.70;;;;;;5453173;26;20447;-64
2024/04/14 09:14:57;;;;;;;11.00;9.07;;;19.40;91.60;;;;;;5446328;26;20569;-64
2024/04/14 09:17:22;;;;;;;7.07;5.77;;;19.40;93.80;;;;;;5419632;26;20999;-64
2024/04/14 09:19:48;;;;;;;8.13;7.03;;;19.50;93.40;;;;;;5424344;26;20267;-65
2024/04/14 09:22:15;;;;;;;6.73;5.13;;;19.50;93.00;;;;;;5418865;26;20274;-63
2024/04/14 09:24:41;;;;;;;10.33;6.10;;;19.50;93.00;;;;;;5418496;26;20444;-64
2024/04/14 09:27:07;;;;;;;4.87;4.40;;;19.50;92.40;;;;;;5418420;26;20437;-66
2024/04/14 09:29:36;;;;;;;6.00;5.40;;;19.60;90.60;;;;;;5416879;26;20235;-66
2024/04/14 09:32:03;;;;;;;5.00;4.30;;;19.80;91.40;;;;;;5417602;26;20313;-66
2024/04/14 09:34:29;;;;;;;6.00;4.10;;;19.90;88.30;;;;;;5382038;26;20441;-65
2024/04/14 09:36:54;;;;;;;4.30;3.90;;;19.90;89.70;;;;;;5416427;26;20506;-64
2024/04/14 09:39:20;;;;;;;4.27;3.87;;;20.00;87.90;;;;;;5417441;26;20235;-65
2024/04/14 09:41:46;;;;;;;9.33;4.50;;;20.20;90.50;;;;;;5417111;26;20234;-64
2024/04/14 09:44:13;;;;;;;14.23;5.60;;;20.40;92.60;;;;;;5415330;26;20671;-66
2024/04/14 09:46:41;;;;;;;5.13;4.27;;;20.30;89.20;;;;;;5412522;26;21024;-65
2024/04/14 09:49:08;;;;;;;4.23;3.77;;;20.40;90.50;;;;;;5417441;26;20453;-66
2024/04/14 09:51:40;;;;;;;4.13;3.70;;;20.50;89.50;;;;;;5363327;26;20445;-65
2024/04/14 09:54:10;;;;;;;5.80;3.77;;;20.60;87.70;;;;;;5384604;26;20808;-64
2024/04/14 09:56:36;;;;;;;4.87;4.20;;;20.70;90.90;;;;;;5415316;26;20540;-64
2024/04/14 09:59:02;;;;;;;7.13;5.00;;;20.90;86.10;;;;;;5356248;26;20468;-65
2024/04/14 10:01:36;;;;;;;4.73;4.10;;;21.10;88.50;;;;;;5417420;26;20282;-65
2024/04/14 10:04:04;;;;;;;4.17;3.87;;;21.10;85.00;;;;;;5417962;26;20841;-65
2024/04/14 10:06:32;;;;;;;5.33;4.83;;;21.20;83.30;;;;;;5385431;26;21108;-64
2024/04/14 10:08:58;;;;;;;4.70;4.30;;;21.10;89.20;;;;;;5416998;26;20519;-65
2024/04/14 10:11:24;;;;;;;26.57;23.77;;;21.00;82.50;;;;;;5417353;26;20449;-67
2024/04/14 10:13:54;;;;;;;53.87;39.17;;;20.90;83.20;;;;;;5418067;26;20520;-65
2024/04/14 10:16:22;;;;;;;7.60;6.27;;;20.80;82.80;;;;;;5416024;26;20468;-64
2024/04/14 10:18:48;;;;;;;43.47;36.70;;;20.70;85.30;;;;;;5433244;26;20483;-65
2024/04/14 10:21:19;;;;;;;13.07;11.70;;;20.80;83.60;;;;;;5453796;26;20432;-65
2024/04/14 10:23:46;;;;;;;6.40;5.90;;;20.80;79.70;;;;;;5453818;26;20487;-64
2024/04/14 10:26:17;;;;;;;7.10;6.27;;;20.80;83.10;;;;;;5447405;26;20441;-63
2024/04/14 10:28:51;;;;;;;7.23;6.30;;;20.90;81.20;;;;;;5416379;26;20501;-65
2024/04/14 10:31:35;;;;;;;10.30;6.73;;;20.90;83.60;;;;;;5413987;26;20449;-66
2024/04/14 10:34:08;;;;;;;6.53;5.80;;;21.00;83.60;;;;;;5417474;26;20526;-66
2024/04/14 10:36:35;;;;;;;6.47;5.23;;;21.00;83.90;;;;;;5415774;26;20441;-65
2024/04/14 10:39:03;;;;;;;5.67;5.13;;;21.00;82.30;;;;;;5417095;26;20449;-65
2024/04/14 10:41:29;;;;;;;6.20;4.77;;;21.00;82.00;;;;;;5415027;26;20445;-65
2024/04/14 10:43:55;;;;;;;6.23;5.63;;;21.00;82.60;;;;;;5423646;26;20831;-65
2024/04/14 10:46:21;;;;;;;6.13;5.63;;;21.10;85.40;;;;;;5416301;26;20278;-65
2024/04/14 10:48:47;;;;;;;245.47;167.40;;;21.10;85.10;;;;;;5417427;26;20355;-65
2024/04/14 10:51:13;;;;;;;85.53;66.27;;;21.10;82.70;;;;;;5415085;26;20979;-65
2024/04/14 10:53:40;;;;;;;6.67;6.07;;;21.10;84.60;;;;;;5385194;26;20231;-66
2024/04/14 10:56:06;;;;;;;5.93;5.30;;;21.10;84.50;;;;;;5385935;26;20777;-66
2024/04/14 10:58:36;;;;;;;4.80;4.50;;;21.10;85.30;;;;;;5385086;26;21004;-65
2024/04/14 11:01:02;;;;;;;5.30;5.00;;;21.10;83.50;;;;;;5417316;26;20484;-66
2024/04/14 11:03:30;;;;;;;5.70;5.30;;;21.20;82.40;;;;;;5416238;26;20445;-65
2024/04/14 11:05:56;;;;;;;7.10;6.50;;;21.20;81.00;;;;;;5417108;26;20517;-65
2024/04/14 11:08:23;;;;;;;6.30;5.73;;;21.20;80.60;;;;;;5416444;26;20972;-65
2024/04/14 11:10:51;;;;;;;6.10;5.70;;;21.30;82.60;;;;;;5417355;26;20509;-65
2024/04/14 11:13:18;;;;;;;5.20;4.90;;;21.20;84.10;;;;;;5416657;26;20446;-65
2024/04/14 11:15:44;;;;;;;6.80;5.77;;;21.10;80.30;;;;;;5411544;26;20884;-65
2024/04/14 11:18:10;;;;;;;7.70;6.13;;;21.10;80.20;;;;;;5414748;26;21033;-65
2024/04/14 11:20:36;;;;;;;6.20;5.60;;;21.00;80.80;;;;;;5414361;26;20237;-66
2024/04/14 11:23:03;;;;;;;5.37;4.87;;;20.90;80.30;;;;;;5440626;26;20276;-65
2024/04/14 11:25:32;;;;;;;4.53;4.10;;;20.80;82.50;;;;;;5451010;26;20233;-62
2024/04/14 11:27:59;;;;;;;5.10;4.70;;;20.70;79.30;;;;;;5453109;26;20447;-60
2024/04/14 11:30:32;;;;;;;5.83;4.93;;;20.50;78.60;;;;;;5452397;26;20455;-61
2024/04/14 11:32:58;;;;;;;4.23;3.93;;;20.50;78.70;;;;;;5452521;26;20451;-60
2024/04/14 11:35:25;;;;;;;4.43;3.93;;;20.30;77.70;;;;;;5452152;26;20950;-60
2024/04/14 11:37:53;;;;;;;4.20;3.90;;;20.20;78.60;;;;;;5451583;26;20448;-60
2024/04/14 11:40:22;;;;;;;4.10;3.90;;;20.00;79.70;;;;;;5440609;26;20786;-62
2024/04/14 11:42:48;;;;;;;4.57;4.17;;;19.90;79.00;;;;;;5451173;26;20447;-62
2024/04/14 11:45:14;;;;;;;4.07;3.73;;;19.80;80.60;;;;;;5451326;26;20440;-62
2024/04/14 11:47:41;;;;;;;4.13;3.83;;;19.70;79.70;;;;;;5450549;26;20792;-62
2024/04/14 11:50:10;;;;;;;4.37;4.07;;;19.80;83.60;;;;;;5451152;26;20511;-62
2024/04/14 11:52:36;;;;;;;4.87;4.33;;;19.80;80.90;;;;;;5449638;26;20503;-62
2024/04/14 11:55:03;;;;;;;5.90;3.93;;;19.80;82.60;;;;;;5420812;26;20451;-62
2024/04/14 11:57:29;;;;;;;4.80;3.87;;;19.80;80.50;;;;;;5449045;26;20550;-60
2024/04/14 11:59:55;;;;;;;4.30;3.90;;;19.70;78.50;;;;;;5452331;26;20447;-60
2024/04/14 12:02:21;;;;;;;3.83;3.60;;;19.80;80.90;;;;;;5452099;26;20277;-60
2024/04/14 12:04:51;;;;;;;5.00;3.53;;;19.90;81.20;;;;;;5450999;26;20234;-60
2024/04/14 12:07:17;;;;;;;3.77;3.47;;;20.00;76.80;;;;;;5452040;26;20431;-62
2024/04/14 12:09:44;;;;;;;3.90;3.70;;;20.10;80.10;;;;;;5450816;26;20487;-62
2024/04/14 12:12:09;;;;;;;3.30;3.10;;;20.10;75.80;;;;;;5452083;26;20213;-62
2024/04/14 12:14:35;;;;;;;4.03;3.60;;;20.20;75.00;;;;;;5451199;26;20427;-62
2024/04/14 12:17:01;;;;;;;4.00;3.60;;;20.10;72.40;;;;;;5451046;26;20230;-63
2024/04/14 12:19:27;;;;;;;3.87;3.60;;;20.20;74.50;;;;;;5425723;26;20565;-63
2024/04/14 12:21:53;;;;;;;3.83;3.53;;;20.20;73.50;;;;;;5415721;26;20215;-63
2024/04/14 12:24:18;;;;;;;3.63;3.43;;;20.20;76.70;;;;;;5414226;26;20505;-65
2024/04/14 12:26:45;;;;;;;4.13;3.10;;;20.20;73.90;;;;;;5415134;26;20463;-65
2024/04/14 12:29:10;;;;;;;4.00;3.70;;;20.30;75.10;;;;;;5416111;26;20219;-64
2024/04/14 12:31:36;;;;;;;3.73;3.07;;;20.40;74.10;;;;;;5415237;26;20490;-64
2024/04/14 12:34:02;;;;;;;6.07;3.40;;;20.50;73.30;;;;;;5415243;26;20319;-69
2024/04/14 12:36:28;;;;;;;4.50;3.43;;;20.50;76.80;;;;;;5414800;26;20602;-72
2024/04/14 12:38:54;;;;;;;116.93;94.20;;;20.50;74.00;;;;;;5415474;26;20579;-66
2024/04/14 12:41:20;;;;;;;18.83;15.80;;;20.60;73.80;;;;;;5414014;26;20441;-63